createdAt,value
2018-11-06T00:00:23.131Z,163.37
2018-11-06T00:02:57.981Z,125.50
2018-11-06T00:05:27.898Z,138.55
2018-11-06T00:07:57.471Z,151.40
2018-11-06T00:10:26.862Z,146.47
2018-11-06T00:12:56.393Z,143.87
2018-11-06T00:15:25.807Z,170.07
2018-11-06T00:17:55.211Z,168.77
2018-11-06T00:20:24.738Z,160.33
2018-11-06T00:22:54.270Z,145.00
2018-11-06T00:25:23.739Z,124.57
2018-11-06T00:27:53.757Z,124.47
2018-11-06T00:30:29.643Z,136.20
2018-11-06T00:32:59.461Z,121.00
2018-11-06T00:35:29.989Z,124.42
2018-11-06T00:37:59.378Z,116.03
2018-11-06T00:40:29.775Z,121.20
2018-11-06T00:42:59.206Z,127.27
2018-11-06T00:45:28.664Z,109.07
2018-11-06T00:47:58.387Z,109.43
2018-11-06T00:50:27.726Z,118.93
2018-11-06T00:52:57.175Z,112.77
2018-11-06T00:55:26.758Z,118.70
2018-11-06T00:57:56.064Z,101.43
2018-11-06T01:00:26.306Z,111.93
2018-11-06T01:02:56.041Z,94.62
2018-11-06T01:05:25.591Z,103.90
2018-11-06T01:07:54.973Z,95.97
2018-11-06T01:10:24.325Z,105.33
2018-11-06T01:12:53.713Z,117.23
2018-11-06T01:15:23.109Z,117.10
2018-11-06T01:17:52.498Z,115.03
2018-11-06T01:20:22.490Z,128.23
2018-11-06T01:22:52.370Z,113.87
2018-11-06T01:25:21.900Z,106.83
2018-11-06T01:27:51.420Z,119.13
2018-11-06T01:30:21.136Z,111.40
2018-11-06T01:32:50.486Z,98.70
2018-11-06T01:35:19.884Z,107.40
2018-11-06T01:37:49.239Z,104.90
2018-11-06T01:40:19.294Z,113.47
2018-11-06T01:42:49.217Z,113.80
2018-11-06T01:45:19.465Z,106.00
2018-11-06T01:47:48.858Z,115.77
2018-11-06T01:50:18.551Z,115.93
2018-11-06T01:52:48.438Z,148.82
2018-11-06T01:55:17.764Z,140.90
2018-11-06T01:57:47.272Z,148.77
2018-11-06T02:00:18.113Z,161.93
2018-11-06T02:02:48.238Z,134.22
2018-11-06T02:05:18.658Z,117.20
2018-11-06T02:07:49.183Z,150.97
2018-11-06T02:10:18.950Z,131.70
2018-11-06T02:12:48.662Z,142.77
2018-11-06T02:15:18.104Z,160.70
2018-11-06T02:17:47.508Z,166.60
2018-11-06T02:20:17.395Z,160.57
2018-11-06T02:22:47.645Z,150.53
2018-11-06T02:25:17.161Z,148.47
2018-11-06T02:27:48.481Z,160.83
2018-11-06T02:30:18.296Z,164.17
2018-11-06T02:32:48.111Z,168.10
2018-11-06T02:35:17.520Z,164.40
2018-11-06T02:37:46.830Z,159.70
2018-11-06T02:40:16.670Z,184.43
2018-11-06T02:42:46.023Z,146.33
2018-11-06T02:45:15.951Z,151.70
2018-11-06T02:47:45.447Z,173.03
2018-11-06T02:50:15.153Z,162.57
2018-11-06T02:52:45.110Z,164.57
2018-11-06T02:55:14.600Z,165.70
2018-11-06T02:57:44.200Z,160.28
2018-11-06T03:00:16.109Z,175.83
2018-11-06T03:02:46.458Z,157.37
2018-11-06T03:05:15.853Z,172.47
2018-11-06T03:07:45.526Z,171.87
2018-11-06T03:10:15.321Z,143.43
2018-11-06T03:12:45.286Z,172.40
2018-11-06T03:15:15.503Z,146.07
2018-11-06T03:17:45.103Z,141.53
2018-11-06T03:20:15.073Z,155.20
2018-11-06T03:22:45.102Z,148.72
2018-11-06T03:25:14.650Z,152.60
2018-11-06T03:27:44.008Z,151.60
2018-11-06T03:30:15.484Z,155.77
2018-11-06T03:32:45.203Z,131.43
2018-11-06T03:35:15.533Z,148.53
2018-11-06T03:37:45.135Z,120.87
2018-11-06T03:40:14.642Z,147.00
2018-11-06T03:42:44.490Z,144.77
2018-11-06T03:45:14.328Z,141.93
2018-11-06T03:47:43.742Z,153.83
2018-11-06T03:50:13.631Z,148.30
2018-11-06T03:52:43.190Z,143.10
2018-11-06T03:55:12.794Z,138.17
2018-11-06T03:57:42.167Z,142.55
2018-11-06T04:00:15.646Z,178.93
2018-11-06T04:02:45.255Z,171.68
2018-11-06T04:05:14.767Z,160.40
2018-11-06T04:07:44.166Z,179.00
2018-11-06T04:10:13.963Z,155.33
2018-11-06T04:12:43.567Z,164.20
2018-11-06T04:15:14.026Z,165.93
2018-11-06T04:17:44.509Z,164.80
2018-11-06T04:20:14.056Z,174.13
2018-11-06T04:22:43.608Z,158.87
2018-11-06T04:25:13.112Z,166.67
2018-11-06T04:27:42.490Z,183.80
2018-11-06T04:30:13.478Z,152.03
2018-11-06T04:32:43.835Z,175.77
2018-11-06T04:35:13.623Z,164.93
2018-11-06T04:37:43.207Z,166.33
2018-11-06T04:40:13.873Z,166.00
2018-11-06T04:42:43.602Z,160.03
2018-11-06T04:45:13.561Z,175.87
2018-11-06T04:47:43.225Z,198.03
2018-11-06T04:50:13.177Z,170.33
2018-11-06T04:52:42.775Z,180.10
2018-11-06T04:55:12.967Z,178.23
2018-11-06T04:57:44.682Z,175.10
2018-11-06T05:00:16.630Z,166.13
2018-11-06T05:02:46.274Z,153.33
2018-11-06T05:05:15.655Z,163.07
2018-11-06T05:07:45.091Z,146.93
2018-11-06T05:10:15.214Z,149.23
2018-11-06T05:12:44.792Z,138.68
2018-11-06T05:15:15.451Z,143.07
2018-11-06T05:17:44.958Z,121.45
2018-11-06T05:20:16.793Z,117.77
2018-11-06T05:22:47.002Z,112.10
2018-11-06T05:25:16.649Z,95.60
2018-11-06T05:27:46.227Z,108.43
2018-11-06T05:30:15.624Z,108.47
2018-11-06T05:32:45.302Z,104.47
2018-11-06T05:35:14.755Z,109.27
2018-11-06T05:37:44.224Z,120.62
2018-11-06T05:40:24.946Z,115.30
2018-11-06T05:42:54.491Z,113.40
2018-11-06T05:45:24.087Z,112.67
2018-11-06T05:47:53.398Z,118.87
2018-11-06T05:50:22.883Z,116.13
2018-11-06T05:52:52.286Z,118.40
2018-11-06T05:55:21.675Z,106.73
2018-11-06T05:57:50.999Z,116.90
2018-11-06T06:00:20.463Z,121.10
2018-11-06T06:02:50.237Z,128.57
2018-11-06T06:05:19.659Z,129.30
2018-11-06T06:07:49.024Z,137.47
2018-11-06T06:10:18.378Z,130.03
2018-11-06T06:12:47.854Z,131.40
2018-11-06T06:15:17.427Z,131.63
2018-11-06T06:17:47.010Z,130.47
2018-11-06T06:20:16.455Z,127.97
2018-11-06T06:22:45.936Z,127.80
2018-11-06T06:25:15.492Z,136.60
2018-11-06T06:27:44.959Z,140.65
2018-11-06T06:30:15.316Z,117.07
2018-11-06T06:32:44.783Z,125.00
2018-11-06T06:35:14.316Z,120.13
2018-11-06T06:37:44.099Z,127.70
2018-11-06T06:40:15.860Z,122.77
2018-11-06T06:42:48.091Z,123.03
2018-11-06T06:45:18.736Z,118.30
2018-11-06T06:47:48.307Z,124.90
2018-11-06T06:50:18.876Z,131.03
2018-11-06T06:52:48.796Z,132.47
2018-11-06T06:55:18.681Z,121.27
2018-11-06T06:57:48.797Z,134.87
2018-11-06T07:00:21.924Z,144.73
2018-11-06T07:02:51.498Z,136.60
2018-11-06T07:05:22.194Z,142.23
2018-11-06T07:07:51.651Z,137.23
2018-11-06T07:10:22.235Z,142.13
2018-11-06T07:12:52.104Z,129.60
2018-11-06T07:15:22.664Z,133.63
2018-11-06T07:17:52.649Z,129.90
2018-11-06T07:20:25.667Z,133.97
2018-11-06T07:22:55.333Z,134.57
2018-11-06T07:25:24.820Z,133.93
2018-11-06T07:27:54.360Z,121.47
2018-11-06T07:30:24.053Z,126.57
2018-11-06T07:32:53.605Z,127.00
2018-11-06T07:35:23.002Z,130.37
2018-11-06T07:37:52.404Z,119.57
2018-11-06T07:40:21.935Z,113.80
2018-11-06T07:42:51.435Z,121.83
2018-11-06T07:45:21.963Z,120.87
2018-11-06T07:47:51.427Z,120.63
2018-11-06T07:50:20.940Z,125.83
2018-11-06T07:52:50.347Z,135.20
2018-11-06T07:55:19.872Z,126.67
2018-11-06T07:57:49.289Z,127.87
2018-11-06T08:00:21.512Z,131.80
2018-11-06T08:02:51.355Z,122.87
2018-11-06T08:05:21.088Z,124.43
2018-11-06T08:07:51.319Z,117.80
2018-11-06T08:10:20.994Z,132.60
2018-11-06T08:12:52.709Z,130.27
2018-11-06T08:15:22.328Z,123.23
2018-11-06T08:17:51.946Z,126.07
2018-11-06T08:20:21.478Z,120.83
2018-11-06T08:22:50.819Z,123.97
2018-11-06T08:25:20.239Z,110.67
2018-11-06T08:27:49.616Z,119.43
2018-11-06T08:30:19.136Z,116.10
2018-11-06T08:32:48.766Z,116.88
2018-11-06T08:35:18.727Z,112.03
2018-11-06T08:37:48.251Z,111.92
2018-11-06T08:40:18.256Z,115.50
2018-11-06T08:42:47.749Z,115.30
2018-11-06T08:45:17.593Z,116.80
2018-11-06T08:47:48.696Z,114.53
2018-11-06T08:50:19.082Z,112.55
2018-11-06T08:52:48.815Z,101.02
2018-11-06T08:55:18.192Z,105.87
2018-11-06T08:57:47.542Z,100.07
2018-11-06T09:00:18.876Z,110.13
2018-11-06T09:02:49.120Z,109.55
2018-11-06T09:05:19.021Z,108.00
2018-11-06T09:07:48.451Z,95.47
2018-11-06T09:10:18.220Z,103.80
2018-11-06T09:12:47.655Z,96.17
2018-11-06T09:15:17.662Z,94.90
2018-11-06T09:17:47.002Z,105.03
2018-11-06T09:20:17.209Z,97.43
2018-11-06T09:22:47.063Z,102.38
2018-11-06T09:25:17.840Z,106.77
2018-11-06T09:27:48.064Z,101.30
2018-11-06T09:30:19.015Z,108.90
2018-11-06T09:32:48.518Z,108.33
2018-11-06T09:35:18.108Z,108.50
2018-11-06T09:37:47.696Z,108.97
2018-11-06T09:40:18.482Z,112.93
2018-11-06T09:42:47.920Z,103.47
2018-11-06T09:45:17.502Z,106.93
2018-11-06T09:47:47.024Z,102.35
2018-11-06T09:50:18.088Z,96.03
2018-11-06T09:52:48.400Z,95.50
2018-11-06T09:55:18.443Z,100.40
2018-11-06T09:57:48.218Z,98.20
2018-11-06T10:00:18.905Z,98.13
2018-11-06T10:02:48.469Z,87.82
2018-11-06T10:05:18.070Z,93.77
2018-11-06T10:07:47.667Z,95.00
2018-11-06T10:10:17.981Z,90.73
2018-11-06T10:12:48.144Z,91.20
2018-11-06T10:15:19.907Z,87.43
2018-11-06T10:17:50.108Z,84.13
2018-11-06T10:20:20.519Z,82.87
2018-11-06T10:22:50.304Z,86.27
2018-11-06T10:25:19.847Z,92.90
2018-11-06T10:27:49.310Z,87.67
2018-11-06T10:30:20.039Z,80.77
2018-11-06T10:32:49.413Z,84.20
2018-11-06T10:35:18.971Z,80.47
2018-11-06T10:37:48.459Z,79.97
2018-11-06T10:40:19.435Z,79.57
2018-11-06T10:42:49.150Z,76.70
2018-11-06T10:45:19.886Z,79.83
2018-11-06T10:47:49.552Z,81.63
2018-11-06T10:50:19.376Z,76.13
2018-11-06T10:52:49.313Z,78.17
2018-11-06T10:55:18.986Z,76.23
2018-11-06T10:57:48.542Z,71.03
2018-11-06T11:00:23.328Z,73.30
2018-11-06T11:02:58.163Z,72.70
2018-11-06T11:05:29.082Z,74.93
2018-11-06T11:07:58.876Z,79.47
2018-11-06T11:10:28.263Z,77.37
2018-11-06T11:12:57.760Z,72.97
2018-11-06T11:15:27.342Z,72.63
2018-11-06T11:17:56.711Z,75.10
2018-11-06T11:20:26.341Z,69.97
2018-11-06T11:22:55.931Z,74.50
2018-11-06T11:25:25.544Z,70.87
2018-11-06T11:27:54.903Z,68.97
2018-11-06T11:30:24.277Z,67.80
2018-11-06T11:32:53.714Z,68.30
2018-11-06T11:35:23.110Z,66.00
2018-11-06T11:37:52.672Z,66.90
2018-11-06T11:40:22.079Z,69.50
2018-11-06T11:42:51.556Z,70.20
2018-11-06T11:45:20.935Z,72.53
2018-11-06T11:47:50.515Z,68.60
2018-11-06T11:50:19.935Z,62.70
2018-11-06T11:52:49.530Z,62.63
2018-11-06T11:55:18.946Z,69.83
2018-11-06T11:57:48.380Z,68.73
2018-11-06T12:00:19.609Z,65.93
2018-11-06T12:02:49.277Z,63.50
2018-11-06T12:05:18.852Z,72.57
2018-11-06T12:07:48.463Z,65.28
2018-11-06T12:10:17.979Z,65.77
2018-11-06T12:12:47.448Z,64.30
2018-11-06T12:15:17.722Z,67.70
2018-11-06T12:17:48.004Z,57.33
2018-11-06T12:20:17.777Z,61.80
2018-11-06T12:22:47.184Z,61.33
2018-11-06T12:25:17.012Z,60.13
2018-11-06T12:27:46.425Z,59.73
2018-11-06T12:30:16.890Z,60.73
2018-11-06T12:32:46.284Z,60.08
2018-11-06T12:35:16.072Z,59.60
2018-11-06T12:37:45.645Z,61.90
2018-11-06T12:40:15.506Z,55.90
2018-11-06T12:42:44.924Z,61.80
2018-11-06T12:45:15.758Z,63.63
2018-11-06T12:47:45.838Z,57.10
2018-11-06T12:50:15.494Z,60.17
2018-11-06T12:52:44.996Z,56.95
2018-11-06T12:55:15.535Z,58.13
2018-11-06T12:57:44.995Z,59.42
2018-11-06T13:00:18.011Z,61.47
2018-11-06T13:02:47.452Z,58.52
2018-11-06T13:05:17.073Z,62.77
2018-11-06T13:07:46.771Z,60.87
2018-11-06T13:10:16.545Z,60.60
2018-11-06T13:12:45.966Z,55.90
2018-11-06T13:15:15.715Z,59.80
2018-11-06T13:17:46.263Z,56.50
2018-11-06T13:20:16.741Z,54.67
2018-11-06T13:22:46.175Z,54.73
2018-11-06T13:25:15.562Z,60.27
2018-11-06T13:27:44.970Z,54.40
2018-11-06T13:30:21.135Z,57.97
2018-11-06T13:32:50.755Z,55.53
2018-11-06T13:35:20.200Z,53.63
2018-11-06T13:37:49.580Z,49.63
2018-11-06T13:40:19.096Z,51.90
2018-11-06T13:42:48.866Z,48.20
2018-11-06T13:45:19.845Z,51.93
2018-11-06T13:47:49.344Z,47.43
2018-11-06T13:50:18.886Z,48.47
2018-11-06T13:52:48.307Z,45.17
2018-11-06T13:55:18.096Z,43.53
2018-11-06T13:57:47.896Z,46.40
2018-11-06T14:00:21.249Z,48.07
2018-11-06T14:02:50.743Z,47.43
2018-11-06T14:05:20.334Z,49.30
2018-11-06T14:07:49.804Z,45.20
2018-11-06T14:10:19.371Z,49.37
2018-11-06T14:12:48.738Z,49.58
2018-11-06T14:15:18.289Z,43.37
2018-11-06T14:17:47.630Z,46.70
2018-11-06T14:20:17.327Z,48.23
2018-11-06T14:22:46.896Z,51.67
2018-11-06T14:25:16.269Z,48.57
2018-11-06T14:27:45.736Z,50.03
2018-11-06T14:30:17.283Z,50.33
2018-11-06T14:32:47.273Z,49.87
2018-11-06T14:35:17.907Z,51.90
2018-11-06T14:37:48.149Z,53.73
2018-11-06T14:40:17.954Z,55.10
2018-11-06T14:42:47.680Z,53.33
2018-11-06T14:45:18.518Z,52.63
2018-11-06T14:47:48.049Z,52.53
2018-11-06T14:50:17.458Z,53.47
2018-11-06T14:52:47.096Z,49.55
2018-11-06T14:55:17.070Z,57.30
2018-11-06T14:57:46.617Z,53.63
2018-11-06T15:00:20.983Z,55.20
2018-11-06T15:02:51.803Z,57.93
2018-11-06T15:05:21.996Z,59.87
2018-11-06T15:07:51.411Z,58.37
2018-11-06T15:10:21.483Z,53.83
2018-11-06T15:12:51.091Z,49.33
2018-11-06T15:15:20.600Z,57.13
2018-11-06T15:17:49.952Z,58.47
2018-11-06T15:20:22.153Z,58.20
2018-11-06T15:22:51.556Z,61.47
2018-11-06T15:25:20.923Z,55.40
2018-11-06T15:27:50.480Z,61.53
2018-11-06T15:30:20.507Z,56.47
2018-11-06T15:32:50.062Z,57.93
2018-11-06T15:35:20.872Z,65.13
2018-11-06T15:37:50.256Z,62.17
2018-11-06T15:40:20.565Z,59.53
2018-11-06T15:42:50.437Z,61.77
2018-11-06T15:45:20.447Z,69.23
2018-11-06T15:47:50.279Z,63.02
2018-11-06T15:50:20.711Z,66.80
2018-11-06T15:52:51.026Z,62.57
2018-11-06T15:55:20.508Z,68.83
2018-11-06T15:57:49.925Z,67.40
2018-11-06T16:00:21.303Z,60.40
2018-11-06T16:02:50.999Z,62.17
2018-11-06T16:05:20.446Z,63.87
2018-11-06T16:07:50.413Z,66.03
2018-11-06T16:10:21.255Z,72.20
2018-11-06T16:12:50.824Z,78.70
2018-11-06T16:15:20.348Z,70.80
2018-11-06T16:17:49.769Z,64.03
2018-11-06T16:20:20.440Z,74.03
2018-11-06T16:22:49.877Z,66.67
2018-11-06T16:25:19.974Z,78.13
2018-11-06T16:27:49.491Z,68.78
2018-11-06T16:30:20.938Z,125.37
2018-11-06T16:32:50.615Z,183.47
2018-11-06T16:35:21.695Z,46.97
2018-11-06T16:37:51.629Z,51.57
2018-11-06T16:40:22.614Z,51.47
2018-11-06T16:42:52.103Z,350.50
2018-11-06T16:45:23.077Z,76.90
2018-11-06T16:47:53.003Z,54.63
2018-11-06T16:50:22.724Z,61.33
2018-11-06T16:52:52.112Z,402.00
2018-11-06T16:55:22.197Z,51.43
2018-11-06T16:57:51.691Z,86.97
2018-11-06T17:00:25.563Z,88.33
2018-11-06T17:02:54.979Z,92.00
2018-11-06T17:05:24.575Z,105.27
2018-11-06T17:07:54.069Z,93.17
2018-11-06T17:10:23.793Z,96.07
2018-11-06T17:12:53.240Z,98.03
2018-11-06T17:15:23.719Z,123.50
2018-11-06T17:17:53.931Z,110.47
2018-11-06T17:20:25.818Z,117.87
2018-11-06T17:22:55.260Z,116.40
2018-11-06T17:25:25.104Z,121.67
2018-11-06T17:27:54.539Z,139.37
2018-11-06T17:30:25.532Z,125.00
2018-11-06T17:32:55.203Z,133.43
2018-11-06T17:35:24.705Z,139.53
2018-11-06T17:37:54.327Z,120.13
2018-11-06T17:40:23.736Z,136.63
2018-11-06T17:42:53.195Z,132.10
2018-11-06T17:45:23.959Z,127.67
2018-11-06T17:47:53.634Z,128.47
2018-11-06T17:50:23.173Z,128.67
2018-11-06T17:52:52.561Z,129.13
2018-11-06T17:55:22.120Z,132.47
2018-11-06T17:57:51.288Z,132.18
2018-11-06T18:00:22.131Z,124.53
2018-11-06T18:02:51.531Z,130.87
2018-11-06T18:05:22.775Z,127.47
2018-11-06T18:07:52.140Z,138.10
2018-11-06T18:10:21.988Z,136.85
2018-11-06T18:12:51.418Z,137.47
2018-11-06T18:15:21.052Z,173.50
2018-11-06T18:17:50.702Z,147.32
2018-11-06T18:20:20.038Z,151.50
2018-11-06T18:22:49.531Z,128.50
2018-11-06T18:25:19.045Z,127.33
2018-11-06T18:27:48.435Z,141.83
2018-11-06T18:30:19.047Z,119.50
2018-11-06T18:32:48.590Z,131.67
2018-11-06T18:35:18.921Z,139.97
2018-11-06T18:37:48.400Z,162.07
2018-11-06T18:40:19.041Z,175.77
2018-11-06T18:42:49.451Z,134.10
2018-11-06T18:45:18.958Z,181.47
2018-11-06T18:47:48.617Z,169.95
2018-11-06T18:50:19.005Z,171.53
2018-11-06T18:52:49.882Z,139.40
2018-11-06T18:55:19.521Z,134.17
2018-11-06T18:57:49.011Z,132.70
2018-11-06T19:00:19.766Z,158.13
2018-11-06T19:02:50.454Z,128.40
2018-11-06T19:05:20.808Z,135.53
2018-11-06T19:07:50.743Z,178.72
2018-11-06T19:10:20.379Z,164.55
2018-11-06T19:12:49.805Z,133.55
2018-11-06T19:15:20.509Z,125.60
2018-11-06T19:17:50.417Z,125.82
2018-11-06T19:20:21.528Z,136.67
2018-11-06T19:22:50.915Z,197.60
2018-11-06T19:25:20.531Z,148.10
2018-11-06T19:27:50.032Z,138.10
2018-11-06T19:30:20.208Z,118.27
2018-11-06T19:32:49.666Z,174.60
2018-11-06T19:35:19.230Z,174.63
2018-11-06T19:37:49.013Z,123.13
2018-11-06T19:40:18.853Z,217.13
2018-11-06T19:42:48.877Z,160.43
2018-11-06T19:45:18.497Z,111.00
2018-11-06T19:47:48.601Z,137.60
2018-11-06T19:50:19.221Z,218.15
2018-11-06T19:52:49.309Z,169.03
2018-11-06T19:55:19.255Z,163.00
2018-11-06T19:57:49.081Z,176.93
2018-11-06T20:00:21.890Z,262.53
2018-11-06T20:02:52.540Z,119.87
2018-11-06T20:05:22.522Z,106.83
2018-11-06T20:07:53.210Z,176.67
2018-11-06T20:10:24.748Z,131.43
2018-11-06T20:12:55.071Z,156.77
2018-11-06T20:15:24.764Z,155.10
2018-11-06T20:17:54.399Z,122.83
2018-11-06T20:20:25.402Z,107.33
2018-11-06T20:22:55.339Z,119.25
2018-11-06T20:25:25.021Z,135.03
2018-11-06T20:27:55.329Z,127.23
2018-11-06T20:30:25.949Z,99.50
2018-11-06T20:32:55.676Z,168.45
2018-11-06T20:35:25.277Z,198.13
2018-11-06T20:37:54.937Z,109.67
2018-11-06T20:40:28.125Z,173.10
2018-11-06T20:42:57.757Z,164.30
2018-11-06T20:45:28.331Z,273.30
2018-11-06T20:47:57.946Z,133.27
2018-11-06T20:50:27.512Z,131.07
2018-11-06T20:52:57.512Z,113.68
2018-11-06T20:55:27.220Z,124.83
2018-11-06T20:57:57.076Z,248.55
2018-11-06T21:00:28.846Z,264.23
2018-11-06T21:03:00.877Z,322.15
2018-11-06T21:05:30.344Z,174.03
2018-11-06T21:07:59.943Z,206.23
2018-11-06T21:10:30.926Z,354.53
2018-11-06T21:13:00.591Z,207.47
2018-11-06T21:15:30.211Z,210.97
2018-11-06T21:17:59.785Z,133.73
2018-11-06T21:20:29.219Z,171.87
2018-11-06T21:22:58.842Z,351.62
2018-11-06T21:25:28.593Z,182.33
2018-11-06T21:27:58.216Z,175.73
2018-11-06T21:30:27.644Z,208.73
2018-11-06T21:32:57.247Z,202.33
2018-11-06T21:35:26.792Z,210.50
2018-11-06T21:37:56.558Z,139.87
2018-11-06T21:40:26.208Z,166.97
2018-11-06T21:42:55.785Z,286.02
2018-11-06T21:45:25.356Z,113.00
2018-11-06T21:47:54.850Z,219.20
2018-11-06T21:50:24.536Z,388.70
2018-11-06T21:52:54.906Z,189.60
2018-11-06T21:55:24.564Z,207.63
2018-11-06T21:57:54.481Z,101.27
2018-11-06T22:00:24.231Z,186.37
2018-11-06T22:02:53.816Z,262.00
2018-11-06T22:05:23.732Z,215.50
2018-11-06T22:07:53.325Z,189.62
2018-11-06T22:10:23.017Z,276.90
2018-11-06T22:12:52.713Z,101.90
2018-11-06T22:15:22.225Z,189.03
2018-11-06T22:17:51.863Z,164.87
2018-11-06T22:20:21.575Z,159.07
2018-11-06T22:22:51.208Z,222.40
2018-11-06T22:25:20.853Z,164.27
2018-11-06T22:27:50.450Z,186.77
2018-11-06T22:30:20.088Z,233.13
2018-11-06T22:32:49.591Z,98.97
2018-11-06T22:35:19.274Z,246.17
2018-11-06T22:37:49.123Z,188.43
2018-11-06T22:40:18.851Z,168.03
2018-11-06T22:42:50.840Z,160.57
2018-11-06T22:45:20.379Z,87.73
2018-11-06T22:47:49.913Z,167.93
2018-11-06T22:50:19.577Z,92.05
2018-11-06T22:52:49.428Z,157.83
2018-11-06T22:55:19.057Z,227.47
2018-11-06T22:57:48.443Z,158.57
2018-11-06T23:00:23.265Z,109.67
